This is the latest recevied weather packets stored in our database for station/object KN6CRX. If no packets are shown the sender has not sent any weather packets the latest 10 day(s).
| Time | Temp. | Humidity | Pressure | Rain* | Wind** | Luminosity | Snow |
|---|---|---|---|---|---|---|---|
| 1787718082 | 22.78° C | 37% | 1025.1 hPa | 0 mm | - | 0 W/m² | - |
| 1787717779 | 22.78° C | 37% | 1025.2 hPa | 0 mm | - | 0 W/m² | - |
| 1787717474 | 22.78° C | 39% | 1025.3 hPa | 0 mm | - | 0 W/m² | - |
| 1787717170 | 22.78° C | 39% | 1025.3 hPa | 0 mm | - | 0 W/m² | - |
| 1787716864 | 22.78° C | 39% | 1025.3 hPa | 0 mm | - | 0 W/m² | - |
| 1787716563 | 23.33° C | 38% | 1025.6 hPa | 0 mm | - | 0 W/m² | - |
| 1787716262 | 23.33° C | 37% | 1025.4 hPa | 0 mm | - | 0 W/m² | - |
| 1787715957 | 23.33° C | 37% | 1025.2 hPa | 0 mm | - | 0 W/m² | - |
| 1787715656 | 23.33° C | 38% | 1025.5 hPa | 0 mm | - | 0 W/m² | - |
| 1787715351 | 23.33° C | 38% | 1025.8 hPa | 0 mm | - | 0 W/m² | - |
| 1787715048 | 23.33° C | 38% | 1025.8 hPa | 0 mm | - | 0 W/m² | - |
| 1787714744 | 23.89° C | 37% | 1025.9 hPa | 0 mm | - | 0 W/m² | - |
| 1787714440 | 23.89° C | 36% | 1025.8 hPa | 0 mm | - | 0 W/m² | - |
| 1787714136 | 24.44° C | 35% | 1025.6 hPa | 0 mm | - | 0 W/m² | - |
| 1787713833 | 24.44° C | 33% | 1025.6 hPa | 0 mm | - | 0 W/m² | - |
| 1787713528 | 25° C | 33% | 1025.3 hPa | 0 mm | - | 0 W/m² | - |
| 1787713226 | 25° C | 32% | 1025.4 hPa | 0 mm | - | 0 W/m² | - |
| 1787712920 | 25° C | 32% | 1025.2 hPa | 0 mm | - | 0 W/m² | - |
| 1787712616 | 25° C | 31% | 1024.9 hPa | 0 mm | - | 0 W/m² | - |
| 1787712316 | 25° C | 31% | 1025.1 hPa | 0 mm | - | 0 W/m² | - |
| 1787712015 | 25° C | 31% | 1024.9 hPa | 0 mm | - | 0 W/m² | - |
| 1787711710 | 24.44° C | 34% | 1025.2 hPa | 0 mm | - | 0 W/m² | - |
| 1787711407 | 23.89° C | 35% | 1025.1 hPa | 0 mm | - | 0 W/m² | - |
| 1787711102 | 23.89° C | 35% | 1025.2 hPa | 0 mm | - | 0 W/m² | - |
| 1787710798 | 23.89° C | 38% | 1025.2 hPa | 0 mm | - | 0 W/m² | - |
* Rain latest hour (hover to see other rain measurements)
** Current wind speed in m/s (hover to see current wind gust speed)